Aquilla, Texas
Current Conditions -  °F | °C
As of 9:51 AM on Saturday 25 Oct 2014 (Local Time) from KACT Reporting Station
Clear Clear  
Wind Chill: 73°   Ceiling: Unl
Heat Index: 73°   Visibility: 10mi
Dew Point: 60°   Wind: 7mph
Humidity: 64%   Direction: 180°S
Pressure: 30.18"   Gusts: NA
Location:  31.85°N, 97.22°W
Report Text: KACT 251451Z 18006KT 10SM CLR 23/16 A3018 RMK AO2 SLP215 T02280156 53016
Loading
Personal Weather Stations






























Interactive Weather Map
Tropical Storm Tracking
New forecast layout! Learn more

10-Day Weather Forecast

Advertisements
Track Severe Weather on mobile